createdAt,value
2023-01-10T00:03:28.130Z,13.30
2023-01-10T00:24:23.805Z,11.20
2023-01-10T00:34:51.351Z,12.50
2023-01-10T00:45:19.959Z,12.60
2023-01-10T00:55:47.866Z,11.00
2023-01-10T01:06:15.520Z,13.80
2023-01-10T01:16:43.109Z,12.40
2023-01-10T01:27:10.673Z,11.90
2023-01-10T01:37:38.169Z,9.80
2023-01-10T01:48:11.017Z,10.50
2023-01-10T01:58:45.233Z,10.50
2023-01-10T02:09:19.738Z,7.90
2023-01-10T02:19:52.896Z,10.10
2023-01-10T02:31:11.392Z,7.80
2023-01-10T02:41:47.420Z,6.90
2023-01-10T02:52:19.873Z,6.40
2023-01-10T03:03:07.934Z,6.00
2023-01-10T03:13:40.685Z,5.00
2023-01-10T03:24:12.707Z,3.80
2023-01-10T03:34:41.126Z,2.70
2023-01-10T03:45:16.282Z,2.20
2023-01-10T03:55:46.468Z,2.20
2023-01-10T04:06:14.212Z,2.90
2023-01-10T04:16:41.769Z,2.60
2023-01-10T04:27:09.612Z,3.30
2023-01-10T04:37:37.975Z,4.30
2023-01-10T04:48:06.897Z,4.30
2023-01-10T04:58:42.879Z,6.70
2023-01-10T05:09:10.645Z,9.00
2023-01-10T05:19:38.301Z,9.10
2023-01-10T05:30:07.688Z,11.50
2023-01-10T05:40:35.457Z,11.10
2023-01-10T05:51:03.008Z,10.20
2023-01-10T06:01:30.659Z,5.50
2023-01-10T06:11:58.306Z,5.80
2023-01-10T06:22:26.414Z,7.40
2023-01-10T06:32:53.923Z,6.10
2023-01-10T06:43:21.416Z,6.20
2023-01-10T06:53:48.980Z,7.50
2023-01-10T07:04:16.536Z,8.40
2023-01-10T07:14:44.288Z,10.60
2023-01-10T07:25:12.436Z,9.80
2023-01-10T07:35:40.314Z,10.50
2023-01-10T07:46:09.765Z,9.50
2023-01-10T07:56:37.285Z,10.70
2023-01-10T08:07:04.839Z,9.60
2023-01-10T08:17:33.624Z,9.60
2023-01-10T08:28:01.367Z,11.50
2023-01-10T08:38:29.687Z,13.20
2023-01-10T08:48:58.013Z,10.80
2023-01-10T08:59:25.583Z,12.20
2023-01-10T09:09:52.996Z,10.80
2023-01-10T09:20:20.701Z,11.10
2023-01-10T09:30:48.990Z,11.80
2023-01-10T09:41:31.257Z,11.80
2023-01-10T09:52:00.227Z,11.00
2023-01-10T10:02:31.723Z,10.10
2023-01-10T10:13:26.424Z,10.30
2023-01-10T10:24:10.436Z,7.50
2023-01-10T10:34:43.334Z,7.80
2023-01-10T10:45:20.507Z,10.60
2023-01-10T10:55:48.973Z,11.30
2023-01-10T11:06:19.387Z,11.60
2023-01-10T11:16:47.091Z,12.30
2023-01-10T11:27:20.721Z,12.30
2023-01-10T11:38:01.948Z,11.50
2023-01-10T11:48:59.754Z,12.30
2023-01-10T11:59:21.765Z,11.50
2023-01-10T12:10:01.635Z,8.80
2023-01-10T12:20:32.440Z,10.40
2023-01-10T12:31:02.486Z,8.70
2023-01-10T12:41:58.237Z,7.70
2023-01-10T12:52:34.636Z,7.80
2023-01-10T13:03:05.072Z,10.10
2023-01-10T13:13:37.236Z,8.50
2023-01-10T13:24:07.006Z,10.40
2023-01-10T13:34:37.623Z,10.30
2023-01-10T13:45:26.013Z,11.20
2023-01-10T13:55:59.896Z,8.60
2023-01-10T14:06:43.777Z,8.00
2023-01-10T14:17:22.719Z,7.60
2023-01-10T14:27:52.883Z,7.80
2023-01-10T14:38:24.863Z,7.80
2023-01-10T14:48:55.338Z,8.90
2023-01-10T14:59:27.417Z,8.40
2023-01-10T15:09:57.382Z,11.10
2023-01-10T15:20:25.275Z,8.90
2023-01-10T15:30:53.593Z,9.30
2023-01-10T15:41:23.848Z,9.50
2023-01-10T15:51:51.787Z,11.70
2023-01-10T16:02:26.057Z,10.60
2023-01-10T16:13:11.372Z,12.70
2023-01-10T16:23:39.115Z,10.60
2023-01-10T16:34:06.707Z,13.30
2023-01-10T16:44:35.377Z,12.20
2023-01-10T16:55:03.167Z,9.80
2023-01-10T17:05:30.864Z,10.60
2023-01-10T17:15:58.879Z,9.60
2023-01-10T17:26:26.516Z,10.20
2023-01-10T17:36:54.169Z,11.60
2023-01-10T17:47:21.704Z,12.70
2023-01-10T17:57:49.458Z,10.30
2023-01-10T18:08:17.031Z,12.90
2023-01-10T18:18:44.555Z,9.70
2023-01-10T18:29:12.170Z,11.40
2023-01-10T18:39:39.657Z,13.00
2023-01-10T18:50:08.298Z,15.30
2023-01-10T19:00:35.826Z,15.60
2023-01-10T19:11:13.303Z,16.10
2023-01-10T19:21:42.314Z,14.50
2023-01-10T19:32:10.533Z,14.30
2023-01-10T19:42:39.964Z,16.50
2023-01-10T19:53:07.599Z,18.70
2023-01-10T20:03:35.161Z,16.50
2023-01-10T20:14:02.649Z,17.70
2023-01-10T20:24:30.264Z,17.60
2023-01-10T20:34:57.961Z,19.10
2023-01-10T20:45:25.607Z,17.90
2023-01-10T20:55:59.696Z,18.40
2023-01-10T21:06:28.542Z,18.90
2023-01-10T21:16:56.177Z,18.80
2023-01-10T21:27:24.485Z,15.80
2023-01-10T21:37:52.092Z,17.60
2023-01-10T21:48:19.650Z,18.90
2023-01-10T21:58:48.139Z,15.90
2023-01-10T22:19:42.500Z,14.40
2023-01-10T22:30:13.346Z,14.50
2023-01-10T22:40:40.950Z,15.70
2023-01-10T22:51:09.508Z,17.40
2023-01-10T23:01:37.307Z,18.10
2023-01-10T23:12:04.975Z,22.10
2023-01-10T23:22:32.733Z,26.30
2023-01-10T23:33:00.217Z,20.60
2023-01-10T23:43:27.985Z,18.90
2023-01-10T23:53:55.678Z,17.40
